Historique des stations

Station météo de Le Mesnil-Thomas

Altitude de la station : 196 m







Données météorologiques pour le 17/01/2021
Date
Heure
Températures Humidité Point de rosée Vitesse
du vent
Direction Rafales Windchill Pression Pluviométrie
Cumul
Date
Heure
Températures Humidité Point de rosée Vitesse
du vent
Direction Rafales Windchill Pression Pluviométrie
Cumul
17/01/2021 14:146.3 °C87 %4.4 °C10 km/hONO31 km/h3.9 1026 hPa0.2 mm
17/01/2021 13:596.7 °C87 %4.4 °C18 km/hNO31 km/h3.3 1026 hPa0.2 mm
17/01/2021 13:446.3 °C85 %3.9 °C16 km/hNO31 km/h3.3 1026 hPa0.2 mm
17/01/2021 13:286.9 °C87 %5.0 °C23 km/hONO31 km/h3.9 1026 hPa0.2 mm
17/01/2021 13:146.6 °C89 %5.0 °C10 km/hONO27 km/h3.9 1026 hPa0.2 mm
17/01/2021 12:596.3 °C88 %4.4 °C14 km/hO27 km/h3.9 1026 hPa0.2 mm
17/01/2021 12:446.7 °C88 %5.0 °C11 km/hO27 km/h3.9 1026 hPa0.2 mm
17/01/2021 12:296.5 °C88 %4.4 °C14 km/hONO27 km/h3.3 1026 hPa0.2 mm
17/01/2021 12:146.2 °C88 %4.4 °C13 km/hO27 km/h3.3 1026 hPa0.2 mm
17/01/2021 11:596.2 °C89 %4.4 °C14 km/hNO27 km/h3.3 1026 hPa0.2 mm
17/01/2021 11:446.1 °C90 %4.4 °C18 km/hONO27 km/h3.9 1026 hPa0.2 mm
17/01/2021 11:285.8 °C89 %3.9 °C11 km/hONO27 km/h3.3 1026 hPa0.2 mm
17/01/2021 11:155.7 °C89 %3.9 °C14 km/hOSO27 km/h2.8 1026 hPa0.2 mm
17/01/2021 10:595.7 °C89 %3.9 °C14 km/hONO27 km/h2.8 1025 hPa0.2 mm
17/01/2021 10:445.3 °C89 %3.9 °C16 km/hO27 km/h2.2 1025 hPa0.2 mm
17/01/2021 10:295.0 °C90 %3.3 °C13 km/hO27 km/h2.2 1025 hPa0.2 mm
17/01/2021 10:144.7 °C90 %3.3 °C6 km/hOSO27 km/h2.2 1025 hPa0.2 mm
17/01/2021 09:594.4 °C90 %2.8 °C10 km/hOSO27 km/h2.2 1024 hPa0.2 mm
17/01/2021 09:444.2 °C91 %2.8 °C11 km/hO27 km/h2.2 1024 hPa0.2 mm
17/01/2021 09:284.0 °C91 %2.8 °C5 km/hOSO27 km/h2.2 1024 hPa0.2 mm
17/01/2021 09:133.7 °C91 %2.2 °C8 km/hOSO27 km/h1.7 1024 hPa0.2 mm
17/01/2021 08:593.7 °C91 %2.2 °C6 km/hOSO27 km/h1.7 1024 hPa0.2 mm
17/01/2021 08:443.7 °C92 %2.8 °C3 km/hOSO27 km/h2.2 1023 hPa0.2 mm
17/01/2021 08:293.8 °C92 %2.8 °C8 km/hSO27 km/h2.2 1023 hPa0.2 mm
17/01/2021 08:144.1 °C91 %2.8 °C3 km/hSO27 km/h3.9 1023 hPa0.2 mm
17/01/2021 07:594.4 °C91 %2.8 °C10 km/hSSO27 km/h2.8 1023 hPa0.2 mm
17/01/2021 07:444.9 °C90 %3.3 °C10 km/hOSO27 km/h2.8 1023 hPa0.2 mm
17/01/2021 07:294.9 °C91 %3.3 °C8 km/hOSO27 km/h2.8 1023 hPa0.2 mm
17/01/2021 07:145.1 °C91 %3.9 °C14 km/hONO27 km/h1.7 1023 hPa0.2 mm
17/01/2021 06:595.2 °C92 %3.9 °C19 km/hOSO26 km/h2.8 1023 hPa-
17/01/2021 06:455.0 °C93 %3.9 °C10 km/hO26 km/h3.3 1023 hPa-
17/01/2021 06:285.1 °C93 %3.9 °C6 km/hOSO26 km/h3.9 1022 hPa-
17/01/2021 06:155.1 °C93 %3.9 °C3 km/hO26 km/h3.9 1022 hPa-
17/01/2021 05:595.1 °C93 %3.9 °C8 km/hO26 km/h3.9 1022 hPa-
17/01/2021 05:445.1 °C93 %3.9 °C8 km/hONO26 km/h2.8 1022 hPa-
17/01/2021 05:295.2 °C93 %4.4 °C16 km/hO26 km/h2.2 1022 hPa-
17/01/2021 05:145.2 °C94 %4.4 °C14 km/hO21 km/h2.8 1022 hPa-
17/01/2021 04:594.9 °C94 %3.9 °C11 km/hO16 km/h2.8 1022 hPa-
17/01/2021 04:444.6 °C95 %3.9 °C5 km/hOSO16 km/h3.3 1022 hPa-
17/01/2021 04:304.7 °C94 %3.9 °C6 km/hOSO16 km/h2.8 1021 hPa-
17/01/2021 04:144.7 °C94 %3.9 °C5 km/hSO16 km/h3.3 1021 hPa-
17/01/2021 03:594.6 °C94 %3.9 °C5 km/hSO16 km/h3.9 1021 hPa-
17/01/2021 03:444.8 °C94 %3.9 °C6 km/hSO16 km/h3.3 1021 hPa-
17/01/2021 03:295.3 °C94 %4.4 °C8 km/hOSO16 km/h3.9 1021 hPa-
17/01/2021 03:145.5 °C95 %5.0 °C5 km/hO16 km/h3.9 1021 hPa-
17/01/2021 03:005.5 °C95 %5.0 °C6 km/hOSO16 km/h3.9 1021 hPa-
17/01/2021 02:445.6 °C95 %5.0 °C8 km/hO16 km/h3.3 1021 hPa-
17/01/2021 02:295.6 °C95 %5.0 °C11 km/hOSO14 km/h3.9 1021 hPa-
17/01/2021 02:145.7 °C95 %5.0 °C11 km/hOSO14 km/h3.9 1021 hPa-
17/01/2021 01:595.7 °C95 %5.0 °C10 km/hOSO14 km/h3.3 1021 hPa-
17/01/2021 01:445.5 °C95 %5.0 °C3 km/hOSO14 km/h5.0 1021 hPa-
17/01/2021 01:295.3 °C95 %4.4 °C6 km/hO14 km/h4.4 1021 hPa-
17/01/2021 01:145.3 °C95 %4.4 °C5 km/hOSO14 km/h3.9 1021 hPa-
17/01/2021 00:595.2 °C95 %4.4 °C5 km/hOSO14 km/h3.9 1021 hPa-
17/01/2021 00:445.3 °C95 %4.4 °C8 km/hOSO14 km/h3.9 1021 hPa-
17/01/2021 00:295.1 °C95 %4.4 °C6 km/hOSO11 km/h4.4 1021 hPa-
17/01/2021 00:145.1 °C95 %4.4 °C5 km/hOSO10 km/h4.4 1021 hPa-


Minima :

Température : 3.7 °C
Humidité : 85 %
Point de rosée : 2.2 °C
Vent moyen : 3 km/h
Windchill : 1.7
Pression atm. : 1021 hPa
Maxima :

Température : 6.9 °C
Humidité : 95 %
Point de rosée : 5.0 °C
Vent moyen : 23 km/h
Windchill : 5.0
Pression atm. : 1026 hPa
Rafales max : 31 km/h
Cumul de pluie sur 24H : 0.2 mm

Le Mesnil-Thomas est une commune du département Eure-et-Loir (28).
La station météorologique du réseau de l'association la plus proche de Le Mesnil-Thomas est celle de Digny



Icône Facebook Association Météo Centre Icône Twitter Association Météo Centre Icône Chaîne Youtube Association Météo Centre Icône contact Association Météo Centre Icône Insta Association Météo Centre